Time;durP1;ratioP1;P1;durP2;ratioP2;P2;SDS_P1;SDS_P2;PMS_P1;PMS_P2;Temp;Humidity;BMP_temperature;BMP_pressure;BME280_temperature;BME280_humidity;BME280_pressure;Samples;Min_cycle;Max_cycle;Signal;HPM_P1;HPM_P2
2021/11/29 00:03:41;;;;;;;75.92;31.30;;;;;;;1.23;100.00;96798.44;4176116;83;21092;-85
2021/11/29 00:09:42;;;;;;;88.95;35.90;;;;;;;1.25;100.00;96797.48;4189256;83;21101;-86
2021/11/29 00:15:44;;;;;;;80.53;31.70;;;;;;;1.24;100.00;96809.97;4184811;83;21065;-86
2021/11/29 00:21:47;;;;;;;75.67;30.50;;;;;;;1.25;100.00;96807.50;4184622;83;21404;-85
2021/11/29 00:27:49;;;;;;;84.65;34.30;;;;;;;1.21;100.00;96826.88;4188673;83;21071;-86
2021/11/29 00:33:50;;;;;;;74.55;31.07;;;;;;;1.19;100.00;96829.94;4185196;83;21072;-85
2021/11/29 00:39:53;;;;;;;78.50;30.02;;;;;;;1.13;100.00;96823.32;4187819;83;21064;-85
2021/11/29 00:45:55;;;;;;;78.37;31.70;;;;;;;1.09;100.00;96814.43;4184009;83;21073;-84
2021/11/29 00:51:57;;;;;;;77.67;33.38;;;;;;;1.09;100.00;96827.91;4181635;83;21590;-85
2021/11/29 00:57:59;;;;;;;86.92;31.80;;;;;;;1.11;100.00;96840.42;4181604;83;21707;-86
2021/11/29 01:04:00;;;;;;;81.63;30.75;;;;;;;1.12;100.00;96856.81;4180287;83;21119;-85
2021/11/29 01:10:06;;;;;;;74.77;28.42;;;;;;;1.11;100.00;96857.17;4180131;83;21065;-87
2021/11/29 01:16:09;;;;;;;76.92;29.67;;;;;;;1.14;100.00;96849.70;4182925;83;21076;-86
2021/11/29 01:22:11;;;;;;;83.20;30.88;;;;;;;1.15;100.00;96841.82;4182635;83;21521;-85
2021/11/29 01:28:14;;;;;;;72.50;27.55;;;;;;;1.13;100.00;96842.19;4193111;83;21050;-88
2021/11/29 01:34:16;;;;;;;66.70;25.85;;;;;;;1.08;100.00;96836.35;4183619;83;21064;-85
2021/11/29 01:40:18;;;;;;;59.25;24.18;;;;;;;0.98;100.00;96840.45;4174476;83;21072;-86
2021/11/29 01:46:19;;;;;;;66.15;26.57;;;;;;;0.92;100.00;96845.95;4177403;83;21075;-85
2021/11/29 01:52:21;;;;;;;53.08;22.60;;;;;;;0.84;100.00;96853.72;4176587;83;21025;-87
2021/11/29 01:58:23;;;;;;;55.48;23.77;;;;;;;0.77;100.00;96860.34;4177691;83;21074;-84
2021/11/29 02:04:25;;;;;;;55.92;23.73;;;;;;;0.73;100.00;96858.17;4172171;83;21093;-84
2021/11/29 02:10:27;;;;;;;62.40;23.73;;;;;;;0.73;100.00;96848.75;4183214;83;21586;-86
2021/11/29 02:16:30;;;;;;;53.52;22.80;;;;;;;0.74;100.00;96857.02;4183901;83;21586;-89
2021/11/29 02:22:32;;;;;;;54.03;21.65;;;;;;;0.76;100.00;96857.45;4181353;83;21056;-85
2021/11/29 02:28:39;;;;;;;55.40;23.73;;;;;;;0.83;100.00;96852.73;4183249;83;21066;-85
2021/11/29 02:34:40;;;;;;;53.35;23.67;;;;;;;0.85;100.00;96851.22;4188383;83;21098;-85
2021/11/29 02:40:42;;;;;;;45.55;21.07;;;;;;;0.90;100.00;96859.00;4196237;83;21079;-86
2021/11/29 02:46:44;;;;;;;59.95;26.35;;;;;;;0.87;100.00;96854.34;4207284;83;21015;-85
2021/11/29 02:52:46;;;;;;;47.73;22.77;;;;;;;0.92;100.00;96867.50;4207899;83;21080;-88
2021/11/29 02:58:48;;;;;;;46.92;21.40;;;;;;;0.96;100.00;96871.02;4205334;83;21031;-85
2021/11/29 03:04:49;;;;;;;44.35;21.90;;;;;;;0.96;100.00;96869.66;4204248;83;21077;-86
2021/11/29 03:10:51;;;;;;;46.30;20.82;;;;;;;0.98;100.00;96862.00;4209306;83;21110;-86
2021/11/29 03:16:55;;;;;;;51.98;23.07;;;;;;;1.00;100.00;96875.87;4202332;83;21045;-84
2021/11/29 03:22:56;;;;;;;53.02;24.90;;;;;;;0.95;100.00;96882.94;4161902;80;30889;-84
2021/11/29 03:29:08;;;;;;;42.67;19.35;;;;;;;0.97;100.00;96887.96;4137458;84;21084;-86
2021/11/29 03:35:10;;;;;;;46.55;22.50;;;;;;;1.00;100.00;96873.77;4133043;84;21103;-86
2021/11/29 03:41:11;;;;;;;41.13;21.93;;;;;;;0.94;100.00;96873.88;4049500;86;21090;-87
2021/11/29 03:47:12;;;;;;;47.60;23.22;;;;;;;0.94;100.00;96876.56;4102646;84;35282;-86
2021/11/29 03:53:15;;;;;;;49.53;23.32;;;;;;;0.94;100.00;96867.89;4158736;84;21082;-85
2021/11/29 03:59:17;;;;;;;50.40;23.50;;;;;;;0.98;100.00;96872.00;4165506;84;20991;-84
2021/11/29 04:05:20;;;;;;;51.73;24.00;;;;;;;1.02;100.00;96854.73;4105154;85;21050;-87
2021/11/29 04:11:22;;;;;;;45.20;20.12;;;;;;;1.00;100.00;96858.95;4169776;84;21038;-85
2021/11/29 04:17:23;;;;;;;47.88;21.75;;;;;;;0.98;100.00;96864.70;4110825;84;22452;-85
2021/11/29 04:23:25;;;;;;;44.80;21.57;;;;;;;0.97;100.00;96869.11;4154631;84;21067;-85
2021/11/29 04:29:28;;;;;;;48.13;22.10;;;;;;;0.96;100.00;96862.14;4167994;84;21034;-84
2021/11/29 04:35:29;;;;;;;42.45;21.93;;;;;;;0.92;100.00;96870.20;4108672;85;21083;-86
2021/11/29 04:41:32;;;;;;;44.25;22.52;;;;;;;0.94;100.00;96880.02;4175863;84;21089;-85
2021/11/29 04:47:35;;;;;;;40.43;20.90;;;;;;;0.94;100.00;96881.95;4107683;85;21077;-86
2021/11/29 04:53:36;;;;;;;47.30;24.85;;;;;;;0.90;100.00;96889.98;4174285;83;21065;-85
2021/11/29 04:59:38;;;;;;;47.00;24.57;;;;;;;0.89;100.00;96895.73;4115736;85;21052;-85
2021/11/29 05:05:40;;;;;;;44.53;23.05;;;;;;;0.91;100.00;96898.84;4179951;84;22275;-84
2021/11/29 05:11:41;;;;;;;41.83;22.05;;;;;;;0.94;100.00;96903.51;4108531;85;21060;-85
2021/11/29 05:17:43;;;;;;;41.53;23.92;;;;;;;0.95;100.00;96899.66;4178411;83;21041;-85
2021/11/29 05:23:45;;;;;;;38.40;22.58;;;;;;;0.96;100.00;96896.61;4114479;85;21408;-86
2021/11/29 05:29:47;;;;;;;38.42;21.10;;;;;;;0.94;100.00;96901.57;4157214;84;21054;-84
2021/11/29 05:35:48;;;;;;;38.08;20.82;;;;;;;0.91;100.00;96900.19;4117458;85;21748;-85
2021/11/29 05:41:51;;;;;;;46.02;26.42;;;;;;;0.90;100.00;96899.97;4172556;84;21092;-85
2021/11/29 05:47:52;;;;;;;39.65;21.70;;;;;;;0.87;100.00;96902.83;4174247;84;21078;-85
2021/11/29 05:53:54;;;;;;;39.27;22.77;;;;;;;0.85;100.00;96923.95;4122755;84;21098;-85
2021/11/29 05:59:55;;;;;;;35.98;20.32;;;;;;;0.87;100.00;96927.63;4193945;83;21054;-85
2021/11/29 06:05:57;;;;;;;36.23;21.02;;;;;;;0.88;100.00;96935.91;4189423;84;21573;-84
2021/11/29 06:11:59;;;;;;;48.00;23.42;;;;;;;0.89;100.00;96955.75;4161267;84;21379;-85
2021/11/29 06:18:01;;;;;;;49.42;27.37;;;;;;;0.86;100.00;96963.20;4132236;84;21018;-86
2021/11/29 06:24:04;;;;;;;41.85;23.95;;;;;;;0.86;100.00;96970.53;4240981;82;21054;-86
2021/11/29 06:30:07;;;;;;;48.17;23.42;;;;;;;0.85;100.00;96976.48;4254460;82;22044;-86
2021/11/29 06:36:10;;;;;;;37.30;20.25;;;;;;;0.73;100.00;96952.98;4251519;83;21030;-85
2021/11/29 06:42:12;;;;;;;43.48;21.35;;;;;;;0.77;100.00;96972.11;4208044;83;22440;-84
2021/11/29 06:48:14;;;;;;;43.10;22.13;;;;;;;0.75;100.00;96976.30;4214004;83;21129;-86
2021/11/29 06:54:16;;;;;;;42.67;22.30;;;;;;;0.76;100.00;96985.38;4166402;84;21050;-85
2021/11/29 07:00:23;;;;;;;49.98;23.15;;;;;;;0.79;100.00;97001.38;4098399;84;21560;-85
2021/11/29 07:06:26;;;;;;;45.17;23.90;;;;;;;0.77;100.00;97001.73;4132592;85;21042;-85
2021/11/29 07:12:27;;;;;;;42.15;20.55;;;;;;;0.76;100.00;97001.53;4174045;84;21544;-85
2021/11/29 07:18:30;;;;;;;42.65;20.52;;;;;;;0.79;100.00;97013.48;4105308;85;21773;-84
2021/11/29 07:24:34;;;;;;;39.98;20.00;;;;;;;0.76;100.00;97009.61;4180149;83;21069;-84
2021/11/29 07:30:35;;;;;;;46.55;22.17;;;;;;;0.78;100.00;97015.42;4102428;85;21032;-86
2021/11/29 07:36:37;;;;;;;38.53;19.45;;;;;;;0.80;100.00;97022.56;4176517;84;21033;-84
2021/11/29 07:42:38;;;;;;;39.70;21.20;;;;;;;0.80;100.00;97026.59;4116898;84;21035;-85
2021/11/29 07:48:40;;;;;;;46.60;23.55;;;;;;;0.79;100.00;97017.53;4118712;85;21507;-85
2021/11/29 07:54:43;;;;;;;46.65;24.70;;;;;;;0.81;100.00;97030.87;4110433;85;21053;-85
2021/11/29 08:00:44;;;;;;;43.83;22.30;;;;;;;0.83;100.00;97027.23;4175720;84;21069;-85
2021/11/29 08:06:46;;;;;;;50.05;24.82;;;;;;;0.81;100.00;97035.47;4109121;85;21427;-86
2021/11/29 08:12:48;;;;;;;41.45;20.62;;;;;;;0.83;100.00;97035.30;4177005;84;21109;-85
2021/11/29 08:18:49;;;;;;;41.73;21.12;;;;;;;0.84;100.00;97040.13;4102594;85;21066;-85
2021/11/29 08:24:51;;;;;;;40.03;20.45;;;;;;;0.85;100.00;97044.37;4165144;84;21380;-85
2021/11/29 08:30:53;;;;;;;42.23;22.87;;;;;;;0.86;100.00;97053.44;4175546;83;21105;-85
2021/11/29 08:36:54;;;;;;;47.38;22.95;;;;;;;0.88;100.00;97058.47;4169697;84;21097;-84
2021/11/29 08:42:58;;;;;;;50.58;24.32;;;;;;;0.94;100.00;97058.41;4086666;85;21596;-88
2021/11/29 08:49:01;;;;;;;43.73;22.07;;;;;;;1.00;100.00;97069.85;4178114;84;21117;-86
2021/11/29 08:55:08;;;;;;;47.23;22.77;;;;;;;1.09;100.00;97062.89;4219974;82;42751;-85
2021/11/29 09:01:10;;;;;;;47.48;23.50;;;;;;;1.13;100.00;97075.84;4166493;84;21071;-86
2021/11/29 09:07:12;;;;;;;46.50;24.07;;;;;;;1.10;100.00;97080.05;4244427;82;21052;-85
2021/11/29 09:13:15;;;;;;;35.55;19.55;;;;;;;1.09;100.00;97081.75;4181651;83;21058;-85
2021/11/29 09:19:16;;;;;;;39.83;20.77;;;;;;;1.09;100.00;97093.88;4106530;85;21052;-86
2021/11/29 09:25:18;;;;;;;44.35;25.70;;;;;;;1.10;100.00;97093.52;4254049;82;21077;-89
2021/11/29 09:31:20;;;;;;;37.65;20.57;;;;;;;1.12;100.00;97093.16;4248480;82;20995;-86
2021/11/29 09:37:21;;;;;;;39.70;22.37;;;;;;;1.12;100.00;97095.86;4256850;82;21102;-85
2021/11/29 09:43:23;;;;;;;40.75;21.75;;;;;;;1.10;100.00;97091.39;4250762;82;21097;-87
2021/11/29 09:49:35;;;;;;;43.95;21.97;;;;;;;1.08;100.00;97089.64;4182027;83;21069;-87
2021/11/29 09:55:31;;;;;;;38.55;21.10;;;;;;;1.08;100.00;97090.98;4233165;82;21069;-87
2021/11/29 10:01:33;;;;;;;37.20;19.95;;;;;;;1.11;100.00;97096.41;4197309;83;21563;-87
2021/11/29 10:07:46;;;;;;;39.25;21.25;;;;;;;1.10;100.00;97103.52;4194757;83;21049;-85
2021/11/29 10:14:05;;;;;;;38.55;20.90;;;;;;;1.07;100.00;97105.58;4239771;82;21676;-85
2021/11/29 10:20:07;;;;;;;38.38;22.10;;;;;;;1.06;100.00;97109.42;4193079;83;21045;-84
2021/11/29 10:26:20;;;;;;;36.65;21.02;;;;;;;1.03;99.98;97114.18;4239006;82;21081;-85
2021/11/29 10:32:41;;;;;;;38.28;22.02;;;;;;;0.97;100.00;97118.31;4242827;82;21046;-85
2021/11/29 10:38:48;;;;;;;47.53;25.95;;;;;;;0.99;100.00;97126.80;4239568;82;21075;-85
2021/11/29 10:44:54;;;;;;;42.90;24.27;;;;;;;0.97;100.00;97130.44;4145396;82;56148;-85
2021/11/29 10:51:10;;;;;;;40.48;21.75;;;;;;;0.97;100.00;97135.82;4157601;84;21630;-87
2021/11/29 10:57:13;;;;;;;43.40;22.70;;;;;;;0.98;100.00;97126.59;4118190;85;21603;-86
2021/11/29 11:03:15;;;;;;;46.25;25.60;;;;;;;0.99;100.00;97135.66;4161387;84;21081;-86
2021/11/29 11:09:23;;;;;;;48.55;24.75;;;;;;;0.92;99.88;97136.89;4115470;85;21323;-85
2021/11/29 11:15:25;;;;;;;54.15;29.05;;;;;;;0.93;100.00;97144.39;4108930;85;21572;-85
2021/11/29 11:21:26;;;;;;;42.65;23.65;;;;;;;0.85;99.65;97148.87;4112737;85;21051;-87
2021/11/29 11:27:33;;;;;;;41.10;22.60;;;;;;;0.80;99.74;97147.80;4074727;86;21054;-85
2021/11/29 11:33:56;;;;;;;44.60;25.82;;;;;;;0.80;99.87;97141.66;4101150;85;21133;-85
2021/11/29 11:40:00;;;;;;;47.90;26.80;;;;;;;0.79;99.73;97150.30;4145259;84;21046;-85
2021/11/29 11:46:02;;;;;;;52.93;23.80;;;;;;;0.79;99.89;97148.16;4028160;86;21067;-84
2021/11/29 11:52:07;;;;;;;49.10;22.80;;;;;;;0.84;100.00;97147.32;4095294;85;21132;-84
2021/11/29 11:58:16;;;;;;;45.17;24.60;;;;;;;0.89;100.00;97157.02;4091588;85;21057;-88
2021/11/29 12:04:18;;;;;;;42.27;22.52;;;;;;;0.92;99.83;97168.44;4084212;86;21087;-86
2021/11/29 12:10:45;;;;;;;40.80;23.15;;;;;;;0.93;99.82;97165.94;4082120;86;21718;-86
2021/11/29 12:16:56;;;;;;;49.88;25.25;;;;;;;0.93;99.87;97164.03;4232789;80;30420;-89
2021/11/29 12:22:58;;;;;;;46.10;24.25;;;;;;;0.95;99.80;97175.80;4466308;78;21533;-85
2021/11/29 12:29:00;;;;;;;36.15;20.57;;;;;;;0.91;99.48;97174.38;4471667;78;21030;-86
2021/11/29 12:35:08;;;;;;;39.35;22.75;;;;;;;0.92;99.51;97175.95;4472071;78;21054;-85
2021/11/29 12:41:09;;;;;;;41.37;22.87;;;;;;;0.94;99.53;97185.03;4470873;78;21094;-87
2021/11/29 12:47:26;;;;;;;44.18;22.55;;;;;;;0.93;99.41;97192.88;4459462;78;21066;-86
2021/11/29 12:53:33;;;;;;;36.65;19.75;;;;;;;0.91;99.40;97195.93;4461262;78;21088;-85
2021/11/29 12:59:57;;;;;;;43.42;22.25;;;;;;;0.91;99.23;97201.91;4458567;78;21047;-86
2021/11/29 13:06:05;;;;;;;44.90;23.85;;;;;;;0.86;99.10;97210.27;4463143;78;21067;-86
2021/11/29 13:12:21;;;;;;;49.10;23.15;;;;;;;0.82;99.21;97214.78;4461767;78;21072;-84
2021/11/29 13:18:52;;;;;;;41.65;22.00;;;;;;;0.78;99.02;97220.13;4461350;78;21101;-86
2021/11/29 13:24:54;;;;;;;46.80;25.85;;;;;;;0.72;99.02;97224.20;4464578;78;21625;-85
2021/11/29 13:30:56;;;;;;;44.35;23.35;;;;;;;0.70;99.19;97229.73;4458485;78;21577;-85
2021/11/29 13:37:00;;;;;;;42.73;24.70;;;;;;;0.70;99.08;97243.20;4457295;78;21063;-84
2021/11/29 13:43:03;;;;;;;40.78;21.65;;;;;;;0.66;99.28;97255.83;4460855;78;21011;-85
2021/11/29 13:49:10;;;;;;;40.78;22.85;;;;;;;0.66;99.25;97256.59;4462852;78;21073;-85
2021/11/29 13:55:17;;;;;;;43.75;24.98;;;;;;;0.63;99.10;97264.02;4464839;78;21073;-85
2021/11/29 14:01:20;;;;;;;53.87;26.48;;;;;;;0.61;99.15;97268.97;4462760;78;20993;-85
2021/11/29 14:07:21;;;;;;;46.00;24.50;;;;;;;0.59;99.12;97270.47;4467143;78;21097;-88
2021/11/29 14:13:28;;;;;;;48.10;26.57;;;;;;;0.61;99.00;97284.37;4467953;78;21511;-85
2021/11/29 14:19:30;;;;;;;49.38;24.12;;;;;;;0.62;98.91;97291.30;4466862;78;21607;-85
2021/11/29 14:25:32;;;;;;;52.00;26.73;;;;;;;0.58;98.75;97289.88;4464907;78;21528;-87
2021/11/29 14:31:35;;;;;;;46.13;26.10;;;;;;;0.52;98.65;97300.70;4464575;78;21022;-85
2021/11/29 14:37:40;;;;;;;38.85;21.23;;;;;;;0.55;98.79;97305.97;4466184;78;21022;-85
2021/11/29 14:43:59;;;;;;;55.43;28.38;;;;;;;0.55;98.49;97318.84;4461560;78;21018;-83
2021/11/29 14:50:21;;;;;;;36.83;19.80;;;;;;;0.53;98.44;97331.11;4462077;78;21569;-85
2021/11/29 14:56:34;;;;;;;38.53;20.65;;;;;;;0.52;98.35;97349.16;4461827;78;21111;-85
2021/11/29 15:02:36;;;;;;;45.25;21.35;;;;;;;0.51;98.19;97357.59;4459176;78;21533;-86
2021/11/29 15:08:37;;;;;;;43.52;21.57;;;;;;;0.47;98.21;97360.78;4376010;80;21045;-85
2021/11/29 15:14:39;;;;;;;36.77;20.05;;;;;;;0.44;97.96;97368.97;4343109;80;21565;-87
2021/11/29 15:20:45;;;;;;;34.33;16.82;;;;;;;0.39;97.70;97377.33;4328269;80;21054;-84
2021/11/29 15:26:47;;;;;;;31.77;14.53;;;;;;;0.32;97.46;97391.15;4323078;80;21553;-89
2021/11/29 15:32:55;;;;;;;23.42;12.93;;;;;;;0.31;97.13;97408.44;4374607;80;21637;-84
2021/11/29 15:38:56;;;;;;;30.88;15.00;;;;;;;0.30;96.89;97420.34;4303150;81;21594;-84
2021/11/29 15:45:15;;;;;;;35.60;18.30;;;;;;;0.18;96.74;97414.45;4312628;81;21059;-86
2021/11/29 15:56:46;;;;;;;32.78;20.70;;;;;;;0.34;96.21;97434.66;4546477;76;28435;-85
2021/11/29 16:02:49;;;;;;;35.28;18.35;;;;;;;0.44;96.36;97445.69;4503622;77;21050;-85
2021/11/29 16:08:52;;;;;;;26.27;14.10;;;;;;;0.44;96.07;97456.45;4501113;77;22303;-86
2021/11/29 16:14:53;;;;;;;36.83;19.15;;;;;;;0.44;96.03;97462.43;4502950;77;21005;-85
2021/11/29 16:20:55;;;;;;;46.18;22.67;;;;;;;0.42;95.80;97469.50;4501068;77;21065;-86
2021/11/29 16:27:03;;;;;;;40.05;19.73;;;;;;;0.44;95.84;97469.16;4487796;77;21046;-85
2021/11/29 16:33:04;;;;;;;41.37;20.37;;;;;;;0.38;95.58;97471.30;4506754;77;21105;-85
2021/11/29 16:39:05;;;;;;;32.93;17.75;;;;;;;0.25;95.79;97471.14;4501378;77;21587;-87
2021/11/29 16:45:08;;;;;;;35.65;18.40;;;;;;;0.34;95.71;97484.45;4507205;77;21041;-86
2021/11/29 16:51:11;;;;;;;40.98;20.37;;;;;;;0.45;95.79;97511.89;4505234;77;21568;-86
2021/11/29 16:57:12;;;;;;;38.65;16.65;;;;;;;0.46;95.73;97514.79;4493899;78;21010;-85
2021/11/29 17:03:15;;;;;;;30.75;14.75;;;;;;;0.47;95.82;97528.45;4487418;78;21046;-85
2021/11/29 17:09:17;;;;;;;27.35;14.58;;;;;;;0.48;95.62;97542.16;4484278;78;22074;-86
2021/11/29 17:15:18;;;;;;;32.05;14.38;;;;;;;0.48;95.62;97542.16;4495589;78;21078;-86
2021/11/29 17:21:20;;;;;;;30.17;16.02;;;;;;;0.47;95.43;97547.30;4487453;78;21080;-86
2021/11/29 17:27:23;;;;;;;30.20;15.40;;;;;;;0.49;95.26;97553.69;4490924;78;21050;-85
2021/11/29 17:33:26;;;;;;;36.73;18.23;;;;;;;0.50;95.35;97552.00;4482752;78;21010;-83
2021/11/29 17:39:28;;;;;;;31.97;16.25;;;;;;;0.50;95.35;97552.00;4372294;78;9999799;-86
2021/11/29 17:45:29;;;;;;;35.90;19.75;;;;;;;0.51;94.74;97560.87;4489123;78;21103;-86
2021/11/29 17:51:34;;;;;;;46.58;23.07;;;;;;;0.52;94.94;97561.11;4483163;78;21628;-87
2021/11/29 17:57:35;;;;;;;45.95;22.95;;;;;;;0.50;95.08;97558.73;4449813;78;20999;-87
2021/11/29 18:03:38;;;;;;;43.95;20.97;;;;;;;0.53;95.25;97566.15;4447675;78;20986;-86
2021/11/29 18:15:42;;;;;;;33.88;16.52;;;;;;;0.56;94.55;97568.16;4276498;81;21035;-87
2021/11/29 18:21:44;;;;;;;33.63;19.15;;;;;;;0.57;94.45;97563.53;4352283;80;21042;-87
2021/11/29 18:27:47;;;;;;;33.08;17.17;;;;;;;0.54;94.66;97565.02;4288144;81;21052;-86
2021/11/29 18:33:48;;;;;;;35.90;18.35;;;;;;;0.52;94.71;97566.49;4348705;80;21093;-88
2021/11/29 18:39:50;;;;;;;40.00;19.12;;;;;;;0.46;94.66;97574.02;4339792;80;21118;-86
2021/11/29 18:45:51;;;;;;;41.37;20.60;;;;;;;0.43;94.46;97583.34;4302971;81;21516;-87
2021/11/29 18:51:55;;;;;;;43.25;21.25;;;;;;;0.32;94.54;97559.38;4305675;80;21075;-87
2021/11/29 18:57:58;;;;;;;44.77;21.95;;;;;;;0.32;94.54;97559.38;4392621;79;21030;-85
2021/11/29 19:04:01;;;;;;;55.35;24.87;;;;;;;0.48;94.85;97584.44;4394573;79;21155;-87
2021/11/29 19:10:06;;;;;;;57.00;27.00;;;;;;;0.51;94.26;97582.41;4395695;79;21485;-86
2021/11/29 19:16:09;;;;;;;48.30;22.67;;;;;;;0.51;94.60;97585.89;4399904;79;21025;-90
2021/11/29 19:22:11;;;;;;;48.52;23.20;;;;;;;0.55;94.43;97589.45;4398610;79;21101;-86
2021/11/29 19:28:17;;;;;;;52.93;25.37;;;;;;;0.55;94.80;97594.84;4386421;79;21035;-87
2021/11/29 19:34:18;;;;;;;58.85;29.35;;;;;;;0.58;94.82;97596.08;4390410;79;21700;-86
2021/11/29 19:40:34;;;;;;;57.38;27.93;;;;;;;0.59;94.66;97606.51;4395120;79;21600;-87
2021/11/29 19:46:26;;;;;;;52.37;24.67;;;;;;;0.61;94.55;97605.58;4371926;79;21113;-86
2021/11/29 19:52:27;;;;;;;49.70;23.27;;;;;;;0.62;94.61;97613.11;4392084;79;22333;-87
2021/11/29 19:58:28;;;;;;;39.98;20.70;;;;;;;0.63;94.48;97619.49;4395354;79;21085;-87
2021/11/29 20:04:30;;;;;;;48.02;22.85;;;;;;;0.66;94.01;97624.77;4406770;79;21026;-87
2021/11/29 20:10:32;;;;;;;39.92;20.50;;;;;;;0.68;94.57;97623.84;4396806;79;21532;-86
2021/11/29 20:16:37;;;;;;;44.67;21.87;;;;;;;0.69;94.51;97629.47;4367759;79;21097;-88
2021/11/29 20:22:39;;;;;;;57.95;25.35;;;;;;;0.70;94.47;97629.69;4401758;79;21101;-86
2021/11/29 20:28:41;;;;;;;51.40;26.25;;;;;;;0.71;94.59;97627.98;4395013;79;21633;-85
2021/11/29 20:34:42;;;;;;;53.33;24.02;;;;;;;0.73;94.44;97633.03;4391394;79;21509;-86
2021/11/29 20:40:44;;;;;;;46.98;23.15;;;;;;;0.73;94.46;97633.83;4399024;79;21037;-87
2021/11/29 20:46:46;;;;;;;43.87;20.23;;;;;;;0.74;94.40;97646.71;4377815;80;21916;-88
2021/11/29 20:52:48;;;;;;;41.00;20.45;;;;;;;0.74;94.38;97651.55;4379983;80;21074;-89
2021/11/29 20:58:50;;;;;;;58.45;25.40;;;;;;;0.76;94.19;97649.85;4379300;79;21641;-86
2021/11/29 21:04:53;;;;;;;50.73;24.55;;;;;;;0.76;94.01;97654.69;4381544;79;21058;-86
2021/11/29 21:10:55;;;;;;;43.50;20.02;;;;;;;0.78;94.15;97661.08;4377610;79;21049;-86
2021/11/29 21:16:57;;;;;;;48.78;23.73;;;;;;;0.77;93.94;97668.36;4374790;79;21062;-86
2021/11/29 21:22:58;;;;;;;44.45;21.12;;;;;;;0.77;93.97;97667.02;4394256;79;21042;-86
2021/11/29 21:29:00;;;;;;;44.67;20.90;;;;;;;0.78;93.79;97674.55;4342064;80;21062;-87
2021/11/29 21:35:02;;;;;;;37.98;18.75;;;;;;;0.77;93.71;97676.45;4351251;80;21042;-84
2021/11/29 21:41:05;;;;;;;49.08;22.90;;;;;;;0.80;93.32;97673.06;4349460;80;21027;-86
2021/11/29 21:47:07;;;;;;;53.58;24.12;;;;;;;0.80;93.62;97690.58;4348136;80;21120;-85
2021/11/29 21:53:08;;;;;;;45.30;22.42;;;;;;;0.82;93.59;97699.66;4324877;80;21176;-86
2021/11/29 21:59:10;;;;;;;52.17;23.35;;;;;;;0.83;93.34;97705.28;4361280;80;21010;-87
2021/11/29 22:05:14;;;;;;;51.58;22.77;;;;;;;0.85;93.68;97708.40;4358512;80;21509;-85
2021/11/29 22:11:15;;;;;;;44.73;20.90;;;;;;;0.85;93.46;97710.54;4357190;80;21050;-86
2021/11/29 22:17:17;;;;;;;47.48;24.40;;;;;;;0.85;93.31;97707.05;4373876;80;20999;-86
2021/11/29 22:23:18;;;;;;;53.55;25.97;;;;;;;0.86;93.24;97711.34;4376402;80;22329;-86
2021/11/29 22:29:20;;;;;;;56.15;26.90;;;;;;;0.87;93.08;97711.55;4375266;80;21093;-86
2021/11/29 22:35:22;;;;;;;49.75;25.60;;;;;;;0.86;93.03;97719.42;4374286;80;21086;-85
2021/11/29 22:41:23;;;;;;;38.65;20.75;;;;;;;0.85;93.21;97721.31;4372729;80;21046;-86
2021/11/29 22:47:25;;;;;;;38.63;19.27;;;;;;;0.87;92.79;97719.63;4376091;80;21586;-88
2021/11/29 22:53:26;;;;;;;42.58;20.23;;;;;;;0.86;92.58;97718.07;4377943;80;21121;-85
2021/11/29 22:59:28;;;;;;;47.85;22.98;;;;;;;0.88;92.73;97722.53;4352074;80;21105;-87
2021/11/29 23:05:30;;;;;;;44.40;20.75;;;;;;;0.89;92.82;97720.84;4355272;80;21018;-86
2021/11/29 23:11:38;;;;;;;44.53;21.27;;;;;;;0.90;92.91;97716.25;4352534;80;21721;-86
2021/11/29 23:17:40;;;;;;;37.55;19.80;;;;;;;0.90;92.86;97717.04;4348655;80;21055;-86
2021/11/29 23:23:42;;;;;;;47.10;23.67;;;;;;;0.91;92.81;97724.57;4349397;80;20980;-85
2021/11/29 23:29:43;;;;;;;41.20;19.82;;;;;;;0.90;92.74;97728.38;4345921;80;21023;-86
2021/11/29 23:35:45;;;;;;;43.33;21.60;;;;;;;0.92;92.63;97736.91;4349916;80;21075;-87
2021/11/29 23:41:48;;;;;;;42.38;18.70;;;;;;;0.91;92.69;97733.41;4344265;80;21007;-88
2021/11/29 23:48:00;;;;;;;42.93;23.05;;;;;;;0.88;92.72;97744.87;4340753;80;21031;-85
2021/11/29 23:53:58;;;;;;;51.55;21.60;;;;;;;0.80;92.85;97745.03;4340085;80;21052;-85
